Time;durP1;ratioP1;P1;durP2;ratioP2;P2;SDS_P1;SDS_P2;PMS_P1;PMS_P2;Temp;Humidity;BMP_temperature;BMP_pressure;BME280_temperature;BME280_humidity;BME280_pressure;Samples;Min_cycle;Max_cycle;Signal;HPM_P1;HPM_P2
2021/03/16 00:02:00;;;;;;;46.95;36.25;;;;;;;3.93;72.69;99659.16;128195;1099;24712;-80
2021/03/16 00:04:28;;;;;;;48.63;34.53;;;;;;;3.94;72.82;99658.22;128214;1100;22489;-79
2021/03/16 00:07:11;;;;;;;41.88;33.78;;;;;;;3.94;72.64;99664.27;128029;1101;22634;-80
2021/03/16 00:09:39;;;;;;;48.33;34.43;;;;;;;3.94;73.34;99659.03;128023;1101;22619;-80
2021/03/16 00:12:10;;;;;;;47.97;35.17;;;;;;;3.93;72.50;99661.77;127989;1101;22480;-79
2021/03/16 00:14:38;;;;;;;51.08;37.53;;;;;;;3.91;72.50;99666.34;128263;1100;22619;-80
2021/03/16 00:17:07;;;;;;;54.13;41.45;;;;;;;3.90;72.72;99659.44;128053;1100;22500;-80
2021/03/16 00:19:35;;;;;;;57.60;42.60;;;;;;;3.88;72.85;99669.23;128215;1101;22482;-80
2021/03/16 00:22:04;;;;;;;56.77;44.75;;;;;;;3.82;72.13;99672.41;128065;1100;22636;-80
2021/03/16 00:24:32;;;;;;;52.20;40.28;;;;;;;3.72;72.68;99667.20;128236;1101;22614;-80
2021/03/16 00:27:01;;;;;;;52.25;41.10;;;;;;;3.64;72.96;99669.70;128047;1101;22525;-80
2021/03/16 00:29:29;;;;;;;48.08;38.55;;;;;;;3.58;72.33;99671.06;128057;1101;22594;-80
2021/03/16 00:31:57;;;;;;;52.17;39.27;;;;;;;3.57;73.42;99666.82;127983;1101;24578;-80
2021/03/16 00:34:26;;;;;;;51.25;37.78;;;;;;;3.57;73.51;99663.39;128021;1100;22489;-79
2021/03/16 00:36:54;;;;;;;47.80;37.30;;;;;;;3.58;72.76;99672.86;128024;1101;22495;-80
2021/03/16 00:39:25;;;;;;;50.10;40.25;;;;;;;3.56;73.62;99670.38;128000;1101;22489;-80
2021/03/16 00:41:53;;;;;;;63.05;50.60;;;;;;;3.54;73.17;99675.75;128207;1099;22567;-80
2021/03/16 00:44:21;;;;;;;66.65;51.92;;;;;;;3.49;72.71;99677.94;128182;1101;22620;-80
2021/03/16 00:46:49;;;;;;;60.03;47.87;;;;;;;3.41;73.32;99672.59;128029;1101;23418;-80
2021/03/16 00:49:20;;;;;;;57.95;45.78;;;;;;;3.32;73.26;99685.66;127977;1101;22521;-81
2021/03/16 00:51:48;;;;;;;92.35;63.30;;;;;;;3.23;72.70;99684.67;127977;1101;22521;-80
2021/03/16 00:54:16;;;;;;;69.70;50.55;;;;;;;3.09;72.67;99680.69;127965;1099;22984;-80
2021/03/16 00:56:45;;;;;;;69.77;49.18;;;;;;;2.94;72.83;99684.67;128136;1099;22616;-80
2021/03/16 00:59:13;;;;;;;78.33;55.38;;;;;;;2.88;73.43;99691.24;127977;1101;22516;-80
2021/03/16 01:01:41;;;;;;;76.50;55.25;;;;;;;2.85;73.12;99690.69;128016;1101;22466;-80
2021/03/16 01:04:10;;;;;;;81.08;56.42;;;;;;;2.80;73.66;99685.88;128001;1101;22480;-80
2021/03/16 01:06:38;;;;;;;71.05;53.85;;;;;;;2.76;73.76;99687.91;128021;1101;24581;-80
2021/03/16 01:09:06;;;;;;;79.80;60.73;;;;;;;2.73;73.39;99692.57;128201;1099;22529;-79
2021/03/16 01:11:34;;;;;;;65.20;52.38;;;;;;;2.66;73.28;99691.45;128016;1101;22567;-80
2021/03/16 01:14:08;;;;;;;62.13;50.17;;;;;;;2.57;73.96;99677.45;128204;1099;22566;-80
2021/03/16 01:16:36;;;;;;;57.65;46.48;;;;;;;2.44;73.56;99684.69;128028;1101;24409;-81
2021/03/16 01:19:04;;;;;;;61.95;48.80;;;;;;;2.35;74.35;99687.11;127970;1101;22489;-81
2021/03/16 01:21:32;;;;;;;62.08;48.55;;;;;;;2.31;74.26;99684.91;128176;1099;22482;-80
2021/03/16 01:24:01;;;;;;;62.67;48.17;;;;;;;2.26;74.44;99682.67;128204;1099;22491;-80
2021/03/16 01:26:29;;;;;;;57.83;49.25;;;;;;;2.24;73.96;99673.36;127992;1101;24918;-80
2021/03/16 01:28:57;;;;;;;57.38;50.05;;;;;;;2.20;74.06;99666.73;128259;1101;22490;-79
2021/03/16 01:31:27;;;;;;;63.38;51.98;;;;;;;2.16;74.29;99671.38;128251;1099;24575;-80
2021/03/16 01:33:55;;;;;;;55.43;45.70;;;;;;;2.15;74.11;99671.53;128237;1101;24435;-79
2021/03/16 01:36:23;;;;;;;52.17;43.85;;;;;;;2.08;74.73;99679.86;128066;1101;24479;-79
2021/03/16 01:38:51;;;;;;;54.88;45.28;;;;;;;2.08;75.27;99677.25;128236;1099;22499;-79
2021/03/16 01:41:20;;;;;;;49.53;43.85;;;;;;;2.07;74.45;99680.00;128235;1101;22565;-79
2021/03/16 01:43:48;;;;;;;47.85;42.62;;;;;;;2.03;74.71;99676.83;127993;1099;22524;-79
2021/03/16 01:46:18;;;;;;;49.35;42.90;;;;;;;2.04;75.66;99680.26;128053;1101;22576;-81
2021/03/16 01:48:47;;;;;;;46.92;41.88;;;;;;;2.03;74.70;99683.80;128045;1099;22576;-80
2021/03/16 01:51:16;;;;;;;48.80;42.13;;;;;;;2.03;75.65;99684.65;127983;1099;22491;-79
2021/03/16 01:53:45;;;;;;;44.10;39.40;;;;;;;2.07;75.23;99682.61;128044;1101;22616;-79
2021/03/16 01:56:26;;;;;;;50.80;44.53;;;;;;;2.10;76.18;99685.78;128035;1100;22619;-79
2021/03/16 01:59:17;;;;;;;49.30;42.62;;;;;;;2.13;75.89;99687.27;128272;1100;24347;-79
2021/03/16 02:02:05;;;;;;;41.92;36.98;;;;;;;2.16;76.15;99691.41;128041;1101;25088;-79
2021/03/16 02:04:52;;;;;;;45.12;37.67;;;;;;;2.06;76.10;99686.14;128272;1099;22524;-80
2021/03/16 02:07:51;;;;;;;46.55;40.50;;;;;;;1.97;75.87;99679.95;128231;1099;22508;-78
2021/03/16 02:11:24;;;;;;;53.15;43.95;;;;;;;1.92;75.83;99689.91;128305;1101;22519;-79
2021/03/16 02:14:27;;;;;;;49.42;44.00;;;;;;;1.88;75.73;99689.34;128301;1101;22489;-79
2021/03/16 02:17:17;;;;;;;;;;;;;;;1.89;76.02;99690.17;128092;1101;22411;-79
2021/03/16 02:20:13;;;;;;;62.80;50.85;;;;;;;1.90;76.76;99689.23;128208;1100;21370;-78
2021/03/16 02:23:06;;;;;;;56.63;50.40;;;;;;;1.98;76.11;99692.02;128267;1101;22489;-79
2021/03/16 02:26:40;;;;;;;64.62;54.33;;;;;;;2.00;76.58;99690.11;128024;1101;22475;-78
2021/03/16 02:29:34;;;;;;;71.72;56.58;;;;;;;1.94;76.45;99688.02;127961;1104;22625;-79
2021/03/16 02:32:25;;;;;;;60.88;49.08;;;;;;;1.92;76.41;99694.30;127956;1102;22549;-81
2021/03/16 02:35:15;;;;;;;60.87;48.73;;;;;;;1.86;75.85;99691.24;127906;1104;22501;-79
2021/03/16 02:38:06;;;;;;;57.93;49.63;;;;;;;1.81;75.74;99697.81;127942;1105;22598;-79
2021/03/16 02:40:56;;;;;;;63.20;51.75;;;;;;;1.75;76.64;99691.33;127988;1104;24618;-80
2021/03/16 02:43:44;;;;;;;61.77;49.48;;;;;;;1.76;76.62;99692.14;127922;1103;22491;-79
2021/03/16 02:46:32;;;;;;;64.80;53.42;;;;;;;1.79;76.83;99699.70;127944;1103;22586;-80
2021/03/16 02:49:21;;;;;;;60.60;50.92;;;;;;;1.72;76.70;99699.39;127931;1103;22496;-79
2021/03/16 02:52:11;;;;;;;60.15;50.65;;;;;;;1.69;76.16;99702.24;127927;1104;25092;-79
2021/03/16 02:54:58;;;;;;;64.37;51.85;;;;;;;1.70;77.03;99700.45;127953;1104;22570;-79
2021/03/16 02:57:46;;;;;;;60.38;52.03;;;;;;;1.76;76.43;99710.38;127949;1104;24572;-79
2021/03/16 03:00:34;;;;;;;62.38;50.08;;;;;;;1.73;75.95;99710.63;127960;1103;24392;-79
2021/03/16 03:03:23;;;;;;;60.15;48.50;;;;;;;1.64;76.59;99707.84;127940;1102;22523;-79
2021/03/16 03:06:15;;;;;;;79.22;61.13;;;;;;;1.63;76.13;99708.80;128005;1101;22484;-78
2021/03/16 03:09:04;;;;;;;62.67;50.25;;;;;;;1.68;76.20;99708.41;128235;1100;24294;-79
2021/03/16 03:11:51;;;;;;;70.30;57.45;;;;;;;1.74;76.75;99710.52;128244;1101;22515;-78
2021/03/16 03:14:38;;;;;;;62.35;52.30;;;;;;;1.76;76.59;99711.20;128052;1101;22493;-79
2021/03/16 03:17:27;;;;;;;67.78;54.75;;;;;;;1.79;76.39;99720.54;128219;1101;22542;-79
2021/03/16 03:20:16;;;;;;;63.95;55.63;;;;;;;1.77;76.69;99712.87;128063;1101;22556;-79
2021/03/16 03:23:32;;;;;;;74.50;65.67;;;;;;;1.81;76.84;99718.64;128053;1099;22566;-78
2021/03/16 03:26:31;;;;;;;68.75;60.17;;;;;;;1.84;76.93;99716.61;128263;1101;22490;-79
2021/03/16 03:29:20;;;;;;;72.05;60.50;;;;;;;1.91;77.27;99723.92;128242;1100;24736;-78
2021/03/16 03:32:08;;;;;;;64.03;55.08;;;;;;;1.94;76.98;99719.28;128190;1100;22567;-79
2021/03/16 03:35:01;;;;;;;63.52;54.98;;;;;;;1.95;76.28;99725.31;128226;1100;23364;-79
2021/03/16 03:37:49;;;;;;;60.88;52.53;;;;;;;1.97;77.23;99728.63;128048;1101;22617;-79
2021/03/16 03:40:37;;;;;;;54.40;48.50;;;;;;;2.00;76.60;99736.16;128276;1101;22547;-80
2021/03/16 03:43:25;;;;;;;55.63;48.10;;;;;;;2.03;77.21;99731.55;128043;1101;22547;-81
2021/03/16 03:46:16;;;;;;;48.52;43.28;;;;;;;2.06;76.22;99738.25;128252;1100;23035;-78
2021/03/16 03:49:04;;;;;;;52.15;43.87;;;;;;;2.04;76.42;99745.39;128245;1100;22569;-80
2021/03/16 03:51:54;;;;;;;53.60;46.80;;;;;;;2.05;76.98;99745.25;128086;1101;22603;-80
2021/03/16 03:54:44;;;;;;;49.48;43.98;;;;;;;2.07;76.31;99743.35;128027;1101;22491;-80
2021/03/16 03:57:31;;;;;;;55.73;46.33;;;;;;;2.08;76.39;99742.39;128195;1101;24829;-79
2021/03/16 04:00:20;;;;;;;51.10;44.10;;;;;;;2.11;76.29;99744.74;128230;1099;22526;-79
2021/03/16 04:03:08;;;;;;;57.50;47.75;;;;;;;2.14;76.21;99751.48;128199;1101;22488;-79
2021/03/16 04:05:55;;;;;;;56.70;49.23;;;;;;;2.12;75.92;99756.80;128247;1099;24373;-80
2021/03/16 04:08:43;;;;;;;56.68;48.00;;;;;;;2.15;76.28;99760.94;128235;1101;22494;-80
2021/03/16 04:11:30;;;;;;;54.63;46.00;;;;;;;2.11;76.24;99762.98;128266;1100;22599;-79
2021/03/16 04:14:17;;;;;;;52.00;46.18;;;;;;;2.05;75.90;99762.66;128056;1100;24428;-79
2021/03/16 04:17:05;;;;;;;56.73;47.50;;;;;;;1.99;76.29;99768.38;128253;1099;22531;-79
2021/03/16 04:19:55;;;;;;;53.63;47.03;;;;;;;1.95;76.67;99761.78;128212;1100;25065;-80
2021/03/16 04:22:45;;;;;;;59.00;49.77;;;;;;;1.91;75.92;99768.20;128288;1099;25100;-80
2021/03/16 04:25:32;;;;;;;57.30;47.43;;;;;;;1.86;76.84;99774.59;128218;1101;22495;-80
2021/03/16 04:28:34;;;;;;;52.38;45.78;;;;;;;1.79;76.57;99773.45;128025;1101;22611;-80
2021/03/16 04:31:21;;;;;;;52.60;46.83;;;;;;;1.77;76.41;99780.58;128026;1101;22616;-80
2021/03/16 04:34:07;;;;;;;58.15;48.85;;;;;;;1.77;76.99;99783.18;128077;1101;22497;-80
2021/03/16 04:36:54;;;;;;;53.02;47.27;;;;;;;1.78;77.21;99779.61;128031;1101;22615;-80
2021/03/16 04:39:41;;;;;;;54.67;47.20;;;;;;;1.78;76.66;99787.42;128030;1101;23310;-80
2021/03/16 04:42:27;;;;;;;57.08;49.85;;;;;;;1.73;77.32;99784.36;128180;1101;22491;-80
2021/03/16 04:45:15;;;;;;;58.25;47.75;;;;;;;1.70;76.89;99779.43;128222;1101;22493;-80
2021/03/16 04:48:02;;;;;;;59.00;50.75;;;;;;;1.68;76.91;99781.31;128047;1101;22527;-80
2021/03/16 04:50:49;;;;;;;62.65;50.67;;;;;;;1.68;77.23;99789.13;128052;1101;22525;-76
2021/03/16 04:53:36;;;;;;;56.65;49.33;;;;;;;1.70;77.12;99788.98;128271;1099;24314;-76
2021/03/16 04:56:23;;;;;;;76.25;55.67;;;;;;;1.68;77.59;99786.52;128211;1101;24618;-79
2021/03/16 04:59:10;;;;;;;105.72;69.70;;;;;;;1.67;76.82;99790.09;128223;1101;22521;-79
2021/03/16 05:01:56;;;;;;;102.97;67.03;;;;;;;1.64;77.08;99785.95;128261;1101;22544;-78
2021/03/16 05:04:44;;;;;;;110.37;74.00;;;;;;;1.66;77.84;99788.41;128233;1100;22525;-79
2021/03/16 05:07:30;;;;;;;166.00;88.03;;;;;;;1.68;76.94;99790.91;128222;1099;22710;-79
2021/03/16 05:10:17;;;;;;;145.22;82.53;;;;;;;1.71;77.43;99788.06;128245;1101;22622;-79
2021/03/16 05:13:04;;;;;;;79.42;60.52;;;;;;;1.71;77.93;99791.48;128247;1099;24347;-79
2021/03/16 05:15:50;;;;;;;81.22;60.00;;;;;;;1.72;77.39;99793.13;128026;1101;22613;-79
2021/03/16 05:18:37;;;;;;;104.12;69.95;;;;;;;1.75;77.72;99805.91;128041;1101;22501;-79
2021/03/16 05:21:24;;;;;;;214.57;97.12;;;;;;;1.82;77.75;99801.84;128039;1101;22522;-79
2021/03/16 05:24:11;;;;;;;266.90;118.35;;;;;;;1.90;78.33;99798.64;128057;1101;22487;-79
2021/03/16 05:26:58;;;;;;;255.75;115.52;;;;;;;2.00;77.56;99802.13;128227;1100;22526;-79
2021/03/16 05:29:45;;;;;;;246.55;112.35;;;;;;;2.10;78.23;99802.20;128045;1100;22573;-79
2021/03/16 05:32:31;;;;;;;289.07;128.60;;;;;;;2.22;77.69;99808.98;128257;1100;22525;-79
2021/03/16 05:35:18;;;;;;;233.80;111.30;;;;;;;2.33;78.46;99811.55;128058;1101;22529;-80
2021/03/16 05:38:07;;;;;;;197.30;98.92;;;;;;;2.43;78.18;99810.75;128234;1101;22486;-79
2021/03/16 05:40:54;;;;;;;128.80;80.45;;;;;;;2.51;78.25;99806.55;128219;1101;25117;-79
2021/03/16 05:43:41;;;;;;;116.73;73.72;;;;;;;2.61;77.14;99817.03;128038;1101;22575;-79
2021/03/16 05:46:28;;;;;;;102.45;72.03;;;;;;;2.67;77.46;99816.52;128022;1101;24465;-78
2021/03/16 05:49:17;;;;;;;111.15;74.15;;;;;;;2.72;76.95;99827.38;128017;1101;25948;-79
2021/03/16 05:52:05;;;;;;;108.42;73.92;;;;;;;2.80;77.25;99824.13;128033;1101;22494;-80
2021/03/16 05:54:55;;;;;;;110.17;77.55;;;;;;;2.82;77.14;99825.63;128040;1101;23430;-79
2021/03/16 05:57:42;;;;;;;134.32;83.37;;;;;;;2.82;77.21;99816.98;128058;1101;22635;-80
2021/03/16 06:00:29;;;;;;;99.28;74.03;;;;;;;2.89;77.27;99825.11;128070;1101;22481;-80
2021/03/16 06:03:17;;;;;;;99.70;75.53;;;;;;;2.93;76.58;99834.33;128103;1100;22512;-79
2021/03/16 06:06:05;;;;;;;136.82;91.37;;;;;;;3.02;76.87;99833.54;128072;1099;22502;-79
2021/03/16 06:08:51;;;;;;;243.90;138.60;;;;;;;3.06;76.71;99835.74;128285;1101;22576;-80
2021/03/16 06:11:51;;;;;;;181.50;106.55;;;;;;;3.06;76.60;99840.14;128264;1101;24520;-79
2021/03/16 06:14:39;;;;;;;118.77;83.03;;;;;;;3.09;76.78;99837.27;128086;1101;22502;-80
2021/03/16 06:17:25;;;;;;;112.57;82.35;;;;;;;3.13;76.91;99846.48;127986;1099;22616;-81
2021/03/16 06:20:33;;;;;;;128.27;93.97;;;;;;;3.22;77.07;99839.65;128087;1101;22566;-80
2021/03/16 06:23:19;;;;;;;145.60;107.35;;;;;;;3.31;76.48;99841.47;128111;1101;23546;-80
2021/03/16 06:26:13;;;;;;;210.72;131.70;;;;;;;3.41;76.56;99854.55;128218;1100;22574;-80
2021/03/16 06:29:10;;;;;;;382.77;259.12;;;;;;;3.56;76.43;99853.19;128051;1101;22495;-80
2021/03/16 06:31:58;;;;;;;550.62;384.30;;;;;;;3.69;77.16;99856.37;128043;1100;22495;-81
2021/03/16 06:34:47;;;;;;;364.32;244.45;;;;;;;3.81;75.96;99856.27;128276;1099;22773;-80
2021/03/16 06:37:35;;;;;;;168.37;117.85;;;;;;;3.91;76.59;99862.32;128035;1101;22683;-80
2021/03/16 06:40:33;;;;;;;93.65;69.37;;;;;;;3.96;75.69;99863.54;128053;1101;22576;-81
2021/03/16 06:43:27;;;;;;;59.20;46.15;;;;;;;4.00;75.36;99867.55;128226;1100;23225;-78
2021/03/16 06:46:13;;;;;;;59.08;47.60;;;;;;;4.07;76.02;99870.45;128046;1100;23391;-77
2021/03/16 06:49:02;;;;;;;56.98;49.20;;;;;;;4.16;75.45;99872.20;128350;1100;22735;-79
2021/03/16 06:51:50;;;;;;;57.65;51.45;;;;;;;4.25;75.97;99873.18;128128;1100;22521;-78
2021/03/16 06:54:37;;;;;;;59.80;52.53;;;;;;;4.30;75.00;99875.36;128152;1100;22510;-80
2021/03/16 06:57:24;;;;;;;54.18;48.20;;;;;;;4.36;75.55;99885.27;128320;1099;24650;-77
2021/03/16 07:00:28;;;;;;;54.70;45.78;;;;;;;4.42;74.98;99892.56;128331;1100;24590;-77
2021/03/16 07:03:17;;;;;;;51.37;44.10;;;;;;;4.48;75.24;99895.45;128168;1101;22460;-77
2021/03/16 07:06:20;;;;;;;47.15;40.17;;;;;;;4.58;74.35;99895.44;128355;1101;22468;-77
2021/03/16 07:09:15;;;;;;;49.27;41.00;;;;;;;4.63;74.27;99895.86;128216;1100;22665;-78
2021/03/16 07:12:09;;;;;;;50.60;42.88;;;;;;;4.65;74.01;99896.52;128410;1101;22496;-80
2021/03/16 07:14:59;;;;;;;51.00;43.95;;;;;;;4.67;73.80;99901.63;128341;1101;25172;-78
2021/03/16 07:17:46;;;;;;;49.27;43.05;;;;;;;4.74;74.16;99904.52;128381;1100;22491;-78
2021/03/16 07:20:35;;;;;;;48.13;42.78;;;;;;;4.79;73.90;99913.56;128176;1101;22487;-78
2021/03/16 07:23:26;;;;;;;49.70;42.20;;;;;;;4.83;73.82;99919.34;128161;1101;22973;-78
2021/03/16 07:26:16;;;;;;;52.78;45.98;;;;;;;4.90;74.22;99925.69;128167;1101;22495;-78
2021/03/16 07:29:06;;;;;;;63.02;52.55;;;;;;;4.93;73.86;99923.61;128202;1101;22483;-78
2021/03/16 07:31:57;;;;;;;60.00;53.45;;;;;;;4.98;73.00;99924.97;128338;1100;22490;-78
2021/03/16 07:34:47;;;;;;;56.13;48.80;;;;;;;5.03;72.86;99930.59;128212;1101;22755;-79
2021/03/16 07:37:35;;;;;;;61.30;49.65;;;;;;;5.08;73.62;99939.67;128346;1099;22511;-78
2021/03/16 07:40:25;;;;;;;60.20;51.30;;;;;;;5.09;73.45;99935.27;128200;1101;22572;-78
2021/03/16 07:43:12;;;;;;;60.83;52.78;;;;;;;5.14;73.45;99933.88;128372;1100;22540;-78
2021/03/16 07:46:12;;;;;;;61.58;53.33;;;;;;;5.26;73.40;99938.92;128336;1101;22478;-79
2021/03/16 07:49:03;;;;;;;60.73;54.18;;;;;;;5.39;73.64;99942.86;128306;1101;22484;-78
2021/03/16 07:51:52;;;;;;;64.77;56.92;;;;;;;5.49;73.16;99949.86;128068;1101;24577;-78
2021/03/16 07:54:41;;;;;;;64.58;57.05;;;;;;;5.60;73.12;99949.70;128706;1101;25061;-79
2021/03/16 07:57:34;;;;;;;67.92;57.33;;;;;;;5.69;72.52;99948.80;128083;1100;24374;-77
2021/03/16 08:00:29;;;;;;;66.77;59.55;;;;;;;5.77;72.40;99956.77;128103;1099;22705;-78
2021/03/16 08:03:24;;;;;;;66.45;58.73;;;;;;;5.81;71.55;99959.92;128255;1101;22521;-78
2021/03/16 08:06:26;;;;;;;64.95;57.98;;;;;;;5.85;71.69;99961.27;128245;1099;22496;-79
2021/03/16 08:09:22;;;;;;;64.32;57.27;;;;;;;5.92;71.91;99964.13;128265;1100;22566;-78
2021/03/16 08:12:27;;;;;;;70.80;62.50;;;;;;;5.98;71.89;99968.82;128122;1101;22804;-78
2021/03/16 08:15:18;;;;;;;70.72;63.10;;;;;;;5.99;71.56;99971.28;128083;1101;22486;-78
2021/03/16 08:18:27;;;;;;;70.20;62.58;;;;;;;6.07;71.57;99976.63;128192;1101;22629;-78
2021/03/16 08:21:15;;;;;;;73.40;65.40;;;;;;;6.18;71.45;99972.14;128020;1101;22497;-78
2021/03/16 08:24:15;;;;;;;79.07;67.82;;;;;;;6.31;70.96;99981.30;128303;1100;24204;-77
2021/03/16 08:27:06;;;;;;;61.23;54.15;;;;;;;6.54;71.02;99976.42;128066;1101;22489;-78
2021/03/16 08:29:53;;;;;;;55.95;49.95;;;;;;;6.89;72.11;99974.72;128086;1101;24575;-78
2021/03/16 08:32:40;;;;;;;57.90;51.77;;;;;;;7.39;71.13;99981.92;128301;1099;22494;-78
2021/03/16 08:35:27;;;;;;;57.85;51.30;;;;;;;7.60;69.44;99975.45;128258;1099;22617;-78
2021/03/16 08:38:30;;;;;;;61.37;55.03;;;;;;;7.97;70.20;99975.94;128293;1101;24600;-78
2021/03/16 08:41:17;;;;;;;61.77;55.50;;;;;;;8.63;69.63;99982.17;128038;1099;22526;-79
2021/03/16 08:44:04;;;;;;;58.58;52.73;;;;;;;9.18;68.25;99980.64;128033;1101;22810;-79
2021/03/16 08:46:52;;;;;;;60.43;53.95;;;;;;;9.45;65.62;99978.59;128240;1101;22522;-78
2021/03/16 08:49:42;;;;;;;62.88;56.28;;;;;;;9.51;64.29;99978.74;128270;1099;22636;-78
2021/03/16 08:52:31;;;;;;;59.40;53.35;;;;;;;9.54;63.65;99986.31;128257;1100;22522;-78
2021/03/16 08:55:24;;;;;;;60.48;54.40;;;;;;;9.77;63.46;99994.31;128062;1101;22788;-79
2021/03/16 08:58:11;;;;;;;58.35;52.38;;;;;;;10.02;62.77;100000.28;128219;1099;24289;-78
2021/03/16 09:00:57;;;;;;;55.85;50.35;;;;;;;9.97;61.03;100000.00;128073;1100;22501;-79
2021/03/16 09:03:44;;;;;;;59.48;52.50;;;;;;;9.77;60.48;100011.95;128050;1101;22490;-79
2021/03/16 09:06:32;;;;;;;60.83;54.43;;;;;;;9.49;60.07;100011.53;128044;1101;22593;-77
2021/03/16 09:09:27;;;;;;;57.83;51.88;;;;;;;9.24;59.84;100005.51;128246;1101;22602;-78
2021/03/16 09:12:35;;;;;;;58.33;52.20;;;;;;;9.01;60.51;100018.55;128016;1101;22610;-80
2021/03/16 09:15:28;;;;;;;61.02;54.88;;;;;;;8.80;60.54;100019.87;128031;1101;23634;-78
2021/03/16 09:18:15;;;;;;;60.85;54.63;;;;;;;8.64;60.98;100015.41;128018;1101;22524;-79
2021/03/16 09:21:05;;;;;;;61.98;55.70;;;;;;;8.62;61.45;100011.28;128126;1100;22481;-78
2021/03/16 09:23:52;;;;;;;62.80;56.08;;;;;;;8.61;61.56;100007.83;128055;1100;24454;-78
2021/03/16 09:26:42;;;;;;;59.35;52.98;;;;;;;8.61;61.42;100017.55;128221;1100;22488;-80
2021/03/16 09:29:37;;;;;;;57.23;51.13;;;;;;;8.63;61.81;100013.77;128070;1101;22636;-78
2021/03/16 09:32:44;;;;;;;50.90;45.63;;;;;;;8.75;61.93;100016.89;128064;1101;22491;-79
2021/03/16 09:35:32;;;;;;;54.98;49.38;;;;;;;8.89;61.59;100025.94;128181;1101;22762;-79
2021/03/16 09:38:19;;;;;;;64.80;54.60;;;;;;;9.04;61.07;100026.94;127993;1101;22604;-79
2021/03/16 09:40:54;;;;;;;61.50;55.28;;;;;;;9.09;60.71;100026.42;128008;1101;22690;-78
2021/03/16 09:43:36;;;;;;;61.28;55.00;;;;;;;9.05;60.29;100035.66;128024;1101;22498;-78
2021/03/16 09:46:13;;;;;;;54.42;48.73;;;;;;;8.93;59.83;100032.55;128046;1101;22650;-78
2021/03/16 09:48:48;;;;;;;55.08;49.38;;;;;;;8.83;59.55;100029.23;128220;1099;24676;-77
2021/03/16 09:51:24;;;;;;;53.33;47.85;;;;;;;8.87;59.81;100036.66;128024;1101;22485;-79
2021/03/16 09:53:57;;;;;;;49.88;44.77;;;;;;;8.88;60.08;100040.11;128084;1099;22497;-79
2021/03/16 09:56:32;;;;;;;53.05;47.75;;;;;;;8.90;59.80;100044.23;127988;1101;24572;-79
2021/03/16 09:59:04;;;;;;;52.05;47.00;;;;;;;8.87;59.57;100039.29;128252;1100;22700;-79
2021/03/16 10:01:40;;;;;;;54.18;48.78;;;;;;;8.86;59.65;100036.80;128027;1100;24590;-78
2021/03/16 10:04:13;;;;;;;49.73;44.70;;;;;;;8.85;59.81;100043.06;128202;1099;22529;-77
2021/03/16 10:06:42;;;;;;;44.50;40.20;;;;;;;8.80;59.43;100046.20;128025;1101;24451;-79
2021/03/16 10:09:19;;;;;;;44.25;39.73;;;;;;;8.76;59.31;100055.40;128029;1101;22502;-78
2021/03/16 10:11:50;;;;;;;40.83;36.63;;;;;;;8.74;59.16;100059.20;128049;1101;24575;-77
2021/03/16 10:14:33;;;;;;;42.78;38.53;;;;;;;8.81;59.67;100050.48;128052;1101;23254;-78
2021/03/16 10:17:01;;;;;;;37.45;33.98;;;;;;;9.00;59.90;100059.03;128029;1101;24897;-78
2021/03/16 10:19:29;;;;;;;38.27;34.33;;;;;;;9.20;59.51;100060.37;128238;1101;23152;-79
2021/03/16 10:21:58;;;;;;;42.85;36.15;;;;;;;9.56;59.75;100054.69;128013;1101;24383;-78
2021/03/16 10:24:27;;;;;;;38.23;34.27;;;;;;;10.01;59.37;100056.70;128221;1099;22930;-77
2021/03/16 10:27:00;;;;;;;32.17;29.10;;;;;;;10.37;57.98;100061.52;128007;1100;24617;-77
2021/03/16 10:29:28;;;;;;;33.63;30.27;;;;;;;10.62;57.06;100053.45;128279;1100;22575;-79
2021/03/16 10:31:58;;;;;;;33.55;30.05;;;;;;;11.00;57.34;100054.34;128208;1100;22483;-78
2021/03/16 10:34:27;;;;;;;33.83;30.45;;;;;;;11.36;55.86;100064.25;128293;1100;22483;-78
2021/03/16 10:36:55;;;;;;;27.13;24.32;;;;;;;11.54;55.00;100064.75;128002;1101;22520;-78
2021/03/16 10:39:23;;;;;;;29.98;26.73;;;;;;;11.67;53.87;100062.30;128256;1099;22521;-77
2021/03/16 10:41:51;;;;;;;32.90;29.40;;;;;;;11.86;53.71;100063.61;128504;1100;22629;-77
2021/03/16 10:44:19;;;;;;;30.77;27.58;;;;;;;11.91;52.73;100060.41;128530;1101;22573;-78
2021/03/16 10:46:49;;;;;;;31.85;27.58;;;;;;;11.72;51.70;100065.20;128277;1101;22519;-77
2021/03/16 10:49:17;;;;;;;28.67;24.63;;;;;;;11.57;51.53;100064.39;128217;1099;22567;-76
2021/03/16 10:51:45;;;;;;;31.30;25.72;;;;;;;11.39;51.63;100070.00;128201;1100;22642;-77
2021/03/16 10:54:13;;;;;;;28.67;23.45;;;;;;;11.15;51.77;100067.59;128043;1101;22478;-78
2021/03/16 10:56:42;;;;;;;27.05;24.45;;;;;;;11.00;51.88;100068.38;128259;1099;22488;-79
2021/03/16 10:59:11;;;;;;;28.30;25.20;;;;;;;10.81;52.28;100067.02;128311;1099;22492;-79
2021/03/16 11:01:39;;;;;;;29.52;26.60;;;;;;;10.63;52.05;100065.64;128084;1101;24571;-78
2021/03/16 11:04:07;;;;;;;31.90;27.45;;;;;;;10.44;52.30;100080.14;128351;1101;24578;-82
2021/03/16 11:06:36;;;;;;;32.67;29.25;;;;;;;10.28;52.92;100073.12;128350;1101;22925;-78
2021/03/16 11:09:04;;;;;;;37.10;33.18;;;;;;;10.19;53.35;100074.92;128109;1101;22590;-77
2021/03/16 11:11:32;;;;;;;43.98;38.58;;;;;;;10.03;53.55;100080.27;128254;1100;22630;-79
2021/03/16 11:14:00;;;;;;;49.70;41.15;;;;;;;9.82;53.54;100084.30;128097;1100;24653;-78
2021/03/16 11:16:29;;;;;;;40.10;35.25;;;;;;;9.53;53.73;100073.48;128369;1101;22468;-77
2021/03/16 11:18:57;;;;;;;40.28;35.75;;;;;;;9.32;54.53;100079.29;128397;1101;22523;-77
2021/03/16 11:21:26;;;;;;;39.03;34.95;;;;;;;9.17;55.12;100079.97;128304;1099;24587;-78
2021/03/16 11:23:55;;;;;;;38.42;34.43;;;;;;;9.05;55.54;100080.45;128012;1100;23510;-78
2021/03/16 11:26:23;;;;;;;35.78;32.03;;;;;;;8.89;55.61;100070.72;127995;1100;22616;-77
2021/03/16 11:28:52;;;;;;;35.50;31.68;;;;;;;8.78;55.67;100077.14;128216;1101;22610;-79
2021/03/16 11:31:23;;;;;;;30.48;27.32;;;;;;;8.68;56.00;100081.73;128202;1099;22494;-80
2021/03/16 11:34:18;;;;;;;31.10;27.32;;;;;;;8.55;55.81;100084.01;128159;1101;22591;-79
2021/03/16 11:37:05;;;;;;;30.15;24.90;;;;;;;8.44;56.32;100087.77;128198;1099;22519;-80
2021/03/16 11:39:53;;;;;;;30.57;26.63;;;;;;;8.37;56.27;100092.00;128197;1100;22530;-78
2021/03/16 11:42:40;;;;;;;27.60;25.00;;;;;;;8.26;56.80;100082.56;128234;1100;22521;-78
2021/03/16 11:45:27;;;;;;;27.98;25.17;;;;;;;8.14;56.83;100089.13;128255;1100;22559;-80
2021/03/16 11:48:14;;;;;;;25.80;22.90;;;;;;;7.98;57.07;100087.23;128193;1100;22494;-78
2021/03/16 11:51:01;;;;;;;27.40;24.70;;;;;;;7.89;57.99;100088.98;128269;1101;22589;-79
2021/03/16 11:53:48;;;;;;;25.95;23.38;;;;;;;7.85;58.14;100090.29;128245;1099;22492;-78
2021/03/16 11:56:35;;;;;;;26.75;23.98;;;;;;;7.81;58.48;100085.51;128242;1099;22610;-79
2021/03/16 11:59:22;;;;;;;27.98;25.12;;;;;;;7.77;59.10;100085.00;128268;1100;23416;-79
2021/03/16 12:02:08;;;;;;;29.67;26.68;;;;;;;7.75;59.39;100084.32;128241;1099;22481;-80
2021/03/16 12:04:55;;;;;;;29.65;26.70;;;;;;;7.69;59.38;100087.56;128202;1099;22483;-79
2021/03/16 12:07:42;;;;;;;30.70;27.55;;;;;;;7.65;59.60;100091.49;128245;1100;22531;-79
2021/03/16 12:10:29;;;;;;;34.67;28.05;;;;;;;7.68;59.63;100092.00;128016;1101;24578;-79
2021/03/16 12:13:16;;;;;;;28.67;25.75;;;;;;;7.71;60.12;100088.25;128263;1099;22517;-78
2021/03/16 12:16:04;;;;;;;29.98;26.90;;;;;;;7.74;59.87;100085.31;128283;1101;22492;-78
2021/03/16 12:18:50;;;;;;;32.00;28.67;;;;;;;7.75;59.81;100081.69;128259;1100;22523;-78
2021/03/16 12:21:38;;;;;;;28.92;26.02;;;;;;;7.75;60.01;100076.43;128210;1101;22894;-79
2021/03/16 12:24:24;;;;;;;34.27;30.57;;;;;;;7.79;59.79;100075.13;128281;1101;24572;-78
2021/03/16 12:27:11;;;;;;;32.88;29.52;;;;;;;7.85;59.48;100077.14;128235;1101;24673;-79
2021/03/16 12:29:58;;;;;;;36.23;32.42;;;;;;;7.92;59.65;100070.27;128242;1100;22526;-78